SBSM/RIA METAR and TAF weather

Enter ICAO airport designator
Station Type Date Time Source
SBSM METAR 2021/01/17 18:00 UTC NOAA

SBSM 171800Z 23006KT 180V300 9999 BKN030 FEW035TCU SCT070 28/21 Q1005


Station Type Date Time Source
SBSM Decoded METAR 2021/01/17 18:00 UTC NOAA

Santa Maria Aero-Porto , Brazil (SBSM) 29-43S 053-42W
Jan 17, 2021 - 01:00 PM EST / 2021.01.17 1800 UTC
Wind: from the SW (230 degrees) at 7 MPH (6 KT) (direction variable):0
Visibility: greater than 7 mile(s):0
Sky conditions: mostly cloudy
Weather: Towering cumulus clouds observed
Temperature: 82 F (28 C)
Dew Point: 69 F (21 C)
Relative Humidity: 65%
Pressure (altimeter): 29.68 in. Hg (1005 hPa)
ob: SBSM 171800Z 23006KT 180V300 9999 BKN030 FEW035TCU SCT070 28/21 Q1005
cycle: 18

Station Type Date Time Source
SBSM TAF 2021/01/17 18:27 UTC NOAA

TAF SBSM 171500Z 1718/1806 20010KT 9999 BKN030 FEW035TCU TX30/1718Z TN18/1806Z
BECMG 1722/1724 18006KT CAVOK
RMK PDJ

Example: see airport list